sensor_id;sensor_type;location;lat;lon;timestamp;P1;durP1;ratioP1;P2;durP2;ratioP2
70780;SDS011;59514;48.810;2.134;2022-08-02T00:00:04;2.63;;;2.30;;
70780;SDS011;59514;48.810;2.134;2022-08-02T00:02:31;2.47;;;2.28;;
70780;SDS011;59514;48.810;2.134;2022-08-02T00:04:56;2.67;;;2.47;;
70780;SDS011;59514;48.810;2.134;2022-08-02T00:07:22;2.95;;;2.30;;
70780;SDS011;59514;48.810;2.134;2022-08-02T00:09:47;3.28;;;2.30;;
70780;SDS011;59514;48.810;2.134;2022-08-02T00:12:13;4.25;;;2.17;;
70780;SDS011;59514;48.810;2.134;2022-08-02T00:14:38;2.33;;;2.13;;
70780;SDS011;59514;48.810;2.134;2022-08-02T00:17:04;2.53;;;2.25;;
70780;SDS011;59514;48.810;2.134;2022-08-02T00:19:30;2.40;;;2.20;;
70780;SDS011;59514;48.810;2.134;2022-08-02T00:21:56;2.28;;;2.08;;
70780;SDS011;59514;48.810;2.134;2022-08-02T00:24:21;2.40;;;2.20;;
70780;SDS011;59514;48.810;2.134;2022-08-02T00:26:46;4.22;;;2.47;;
70780;SDS011;59514;48.810;2.134;2022-08-02T00:29:11;3.65;;;2.10;;
70780;SDS011;59514;48.810;2.134;2022-08-02T00:31:37;3.88;;;2.10;;
70780;SDS011;59514;48.810;2.134;2022-08-02T00:34:03;2.53;;;2.28;;
70780;SDS011;59514;48.810;2.134;2022-08-02T00:36:28;2.80;;;2.60;;
70780;SDS011;59514;48.810;2.134;2022-08-02T00:38:53;3.72;;;2.60;;
70780;SDS011;59514;48.810;2.134;2022-08-02T00:41:19;3.67;;;2.83;;
70780;SDS011;59514;48.810;2.134;2022-08-02T00:43:46;2.40;;;2.20;;
70780;SDS011;59514;48.810;2.134;2022-08-02T00:46:13;4.18;;;2.50;;
70780;SDS011;59514;48.810;2.134;2022-08-02T00:48:40;2.55;;;2.35;;
70780;SDS011;59514;48.810;2.134;2022-08-02T00:51:05;2.58;;;2.30;;
70780;SDS011;59514;48.810;2.134;2022-08-02T00:53:31;4.15;;;2.20;;
70780;SDS011;59514;48.810;2.134;2022-08-02T00:55:57;2.90;;;2.67;;
70780;SDS011;59514;48.810;2.134;2022-08-02T00:58:23;5.15;;;2.45;;
70780;SDS011;59514;48.810;2.134;2022-08-02T01:00:48;2.55;;;2.15;;
70780;SDS011;59514;48.810;2.134;2022-08-02T01:03:14;2.42;;;2.22;;
70780;SDS011;59514;48.810;2.134;2022-08-02T01:05:39;2.63;;;2.42;;
70780;SDS011;59514;48.810;2.134;2022-08-02T01:08:04;2.65;;;2.28;;
70780;SDS011;59514;48.810;2.134;2022-08-02T01:10:30;4.15;;;2.50;;
70780;SDS011;59514;48.810;2.134;2022-08-02T01:12:57;2.70;;;2.50;;
70780;SDS011;59514;48.810;2.134;2022-08-02T01:15:22;2.58;;;2.38;;
70780;SDS011;59514;48.810;2.134;2022-08-02T01:18:08;2.85;;;2.50;;
70780;SDS011;59514;48.810;2.134;2022-08-02T01:29:12;2.58;;;2.38;;
70780;SDS011;59514;48.810;2.134;2022-08-02T01:37:23;3.10;;;2.30;;
70780;SDS011;59514;48.810;2.134;2022-08-02T01:39:56;2.58;;;2.38;;
70780;SDS011;59514;48.810;2.134;2022-08-02T01:42:27;2.90;;;2.60;;
70780;SDS011;59514;48.810;2.134;2022-08-02T01:44:55;3.92;;;2.67;;
70780;SDS011;59514;48.810;2.134;2022-08-02T01:47:23;2.80;;;2.55;;
70780;SDS011;59514;48.810;2.134;2022-08-02T01:49:53;2.63;;;2.42;;
70780;SDS011;59514;48.810;2.134;2022-08-02T01:52:21;2.50;;;2.30;;
70780;SDS011;59514;48.810;2.134;2022-08-02T01:54:54;2.70;;;2.50;;
70780;SDS011;59514;48.810;2.134;2022-08-02T01:57:21;3.85;;;2.67;;
70780;SDS011;59514;48.810;2.134;2022-08-02T01:59:48;2.97;;;2.40;;
70780;SDS011;59514;48.810;2.134;2022-08-02T02:02:15;2.85;;;2.55;;
70780;SDS011;59514;48.810;2.134;2022-08-02T02:04:43;5.32;;;2.55;;
70780;SDS011;59514;48.810;2.134;2022-08-02T02:07:11;2.60;;;2.40;;
70780;SDS011;59514;48.810;2.134;2022-08-02T02:09:40;3.47;;;2.47;;
70780;SDS011;59514;48.810;2.134;2022-08-02T02:12:07;3.40;;;2.30;;
70780;SDS011;59514;48.810;2.134;2022-08-02T02:14:33;4.90;;;2.70;;
70780;SDS011;59514;48.810;2.134;2022-08-02T02:17:01;2.33;;;2.13;;
70780;SDS011;59514;48.810;2.134;2022-08-02T02:19:27;3.38;;;2.25;;
70780;SDS011;59514;48.810;2.134;2022-08-02T02:21:53;2.45;;;2.25;;
70780;SDS011;59514;48.810;2.134;2022-08-02T02:24:19;4.10;;;2.60;;
70780;SDS011;59514;48.810;2.134;2022-08-02T02:26:44;3.65;;;2.28;;
70780;SDS011;59514;48.810;2.134;2022-08-02T02:29:11;3.85;;;2.30;;
70780;SDS011;59514;48.810;2.134;2022-08-02T02:31:38;2.70;;;2.33;;
70780;SDS011;59514;48.810;2.134;2022-08-02T02:34:07;2.63;;;2.13;;
70780;SDS011;59514;48.810;2.134;2022-08-02T02:36:39;2.60;;;2.40;;
70780;SDS011;59514;48.810;2.134;2022-08-02T02:39:09;2.53;;;2.33;;
70780;SDS011;59514;48.810;2.134;2022-08-02T02:41:36;2.58;;;2.38;;
70780;SDS011;59514;48.810;2.134;2022-08-02T02:44:03;2.67;;;2.20;;
70780;SDS011;59514;48.810;2.134;2022-08-02T02:46:32;2.65;;;2.33;;
70780;SDS011;59514;48.810;2.134;2022-08-02T02:48:58;2.80;;;2.20;;
70780;SDS011;59514;48.810;2.134;2022-08-02T02:51:25;2.40;;;2.20;;
70780;SDS011;59514;48.810;2.134;2022-08-02T02:53:51;4.53;;;2.50;;
70780;SDS011;59514;48.810;2.134;2022-08-02T02:56:17;3.53;;;2.10;;
70780;SDS011;59514;48.810;2.134;2022-08-02T02:58:44;3.00;;;2.30;;
70780;SDS011;59514;48.810;2.134;2022-08-02T03:01:11;2.45;;;2.25;;
70780;SDS011;59514;48.810;2.134;2022-08-02T03:06:24;3.10;;;2.03;;
70780;SDS011;59514;48.810;2.134;2022-08-02T03:08:49;2.88;;;2.38;;
70780;SDS011;59514;48.810;2.134;2022-08-02T03:11:15;4.82;;;2.47;;
70780;SDS011;59514;48.810;2.134;2022-08-02T03:13:41;3.60;;;2.42;;
70780;SDS011;59514;48.810;2.134;2022-08-02T03:16:07;3.35;;;2.55;;
70780;SDS011;59514;48.810;2.134;2022-08-02T03:18:33;2.33;;;2.10;;
70780;SDS011;59514;48.810;2.134;2022-08-02T03:21:00;2.78;;;2.30;;
70780;SDS011;59514;48.810;2.134;2022-08-02T03:23:29;4.18;;;2.55;;
70780;SDS011;59514;48.810;2.134;2022-08-02T03:25:54;2.85;;;2.50;;
70780;SDS011;59514;48.810;2.134;2022-08-02T03:28:20;2.55;;;2.28;;
70780;SDS011;59514;48.810;2.134;2022-08-02T03:30:45;2.63;;;2.42;;
70780;SDS011;59514;48.810;2.134;2022-08-02T03:33:10;3.05;;;2.65;;
70780;SDS011;59514;48.810;2.134;2022-08-02T03:35:36;2.65;;;2.28;;
70780;SDS011;59514;48.810;2.134;2022-08-02T03:38:04;2.50;;;2.28;;
70780;SDS011;59514;48.810;2.134;2022-08-02T03:40:30;2.65;;;2.25;;
70780;SDS011;59514;48.810;2.134;2022-08-02T03:42:56;2.45;;;2.25;;
70780;SDS011;59514;48.810;2.134;2022-08-02T03:45:22;3.60;;;2.60;;
70780;SDS011;59514;48.810;2.134;2022-08-02T03:47:49;4.88;;;2.15;;
70780;SDS011;59514;48.810;2.134;2022-08-02T03:50:16;2.38;;;2.10;;
70780;SDS011;59514;48.810;2.134;2022-08-02T03:52:44;3.00;;;2.30;;
70780;SDS011;59514;48.810;2.134;2022-08-02T03:55:10;2.80;;;2.20;;
70780;SDS011;59514;48.810;2.134;2022-08-02T03:57:37;3.97;;;2.20;;
70780;SDS011;59514;48.810;2.134;2022-08-02T04:00:04;1.98;;;1.85;;
70780;SDS011;59514;48.810;2.134;2022-08-02T04:02:31;2.40;;;2.20;;
70780;SDS011;59514;48.810;2.134;2022-08-02T04:04:56;2.70;;;2.28;;
70780;SDS011;59514;48.810;2.134;2022-08-02T04:07:21;2.47;;;2.28;;
70780;SDS011;59514;48.810;2.134;2022-08-02T04:09:47;3.35;;;2.20;;
70780;SDS011;59514;48.810;2.134;2022-08-02T04:12:12;2.65;;;2.42;;
70780;SDS011;59514;48.810;2.134;2022-08-02T04:14:37;2.63;;;2.42;;
70780;SDS011;59514;48.810;2.134;2022-08-02T04:17:08;2.83;;;2.20;;
70780;SDS011;59514;48.810;2.134;2022-08-02T04:19:37;3.42;;;2.28;;
70780;SDS011;59514;48.810;2.134;2022-08-02T04:22:03;2.70;;;2.50;;
70780;SDS011;59514;48.810;2.134;2022-08-02T04:24:37;2.92;;;2.20;;
70780;SDS011;59514;48.810;2.134;2022-08-02T04:27:06;2.17;;;2.08;;
70780;SDS011;59514;48.810;2.134;2022-08-02T04:29:33;2.65;;;2.38;;
70780;SDS011;59514;48.810;2.134;2022-08-02T04:32:00;2.17;;;2.00;;
70780;SDS011;59514;48.810;2.134;2022-08-02T04:34:26;2.55;;;2.35;;
70780;SDS011;59514;48.810;2.134;2022-08-02T04:36:53;3.17;;;2.53;;
70780;SDS011;59514;48.810;2.134;2022-08-02T04:39:18;2.58;;;2.20;;
70780;SDS011;59514;48.810;2.134;2022-08-02T04:41:44;3.67;;;2.15;;
70780;SDS011;59514;48.810;2.134;2022-08-02T04:44:12;2.83;;;2.55;;
70780;SDS011;59514;48.810;2.134;2022-08-02T04:46:38;2.95;;;2.65;;
70780;SDS011;59514;48.810;2.134;2022-08-02T04:49:06;3.53;;;2.67;;
70780;SDS011;59514;48.810;2.134;2022-08-02T04:51:35;2.88;;;2.55;;
70780;SDS011;59514;48.810;2.134;2022-08-02T04:54:02;3.20;;;2.58;;
70780;SDS011;59514;48.810;2.134;2022-08-02T04:56:28;2.95;;;2.75;;
70780;SDS011;59514;48.810;2.134;2022-08-02T04:58:53;3.15;;;2.30;;
70780;SDS011;59514;48.810;2.134;2022-08-02T05:01:19;3.70;;;2.70;;
70780;SDS011;59514;48.810;2.134;2022-08-02T05:03:44;4.15;;;2.67;;
70780;SDS011;59514;48.810;2.134;2022-08-02T05:06:09;2.50;;;2.20;;
70780;SDS011;59514;48.810;2.134;2022-08-02T05:08:35;4.65;;;2.20;;
70780;SDS011;59514;48.810;2.134;2022-08-02T05:11:00;3.70;;;2.63;;
70780;SDS011;59514;48.810;2.134;2022-08-02T05:13:25;2.55;;;2.35;;
70780;SDS011;59514;48.810;2.134;2022-08-02T05:15:50;2.80;;;2.13;;
70780;SDS011;59514;48.810;2.134;2022-08-02T05:18:16;2.30;;;2.10;;
70780;SDS011;59514;48.810;2.134;2022-08-02T05:20:42;2.35;;;2.20;;
70780;SDS011;59514;48.810;2.134;2022-08-02T05:23:07;4.18;;;2.90;;
70780;SDS011;59514;48.810;2.134;2022-08-02T05:25:32;2.85;;;2.58;;
70780;SDS011;59514;48.810;2.134;2022-08-02T05:27:58;2.47;;;2.15;;
70780;SDS011;59514;48.810;2.134;2022-08-02T05:30:23;2.67;;;2.33;;
70780;SDS011;59514;48.810;2.134;2022-08-02T05:32:49;3.42;;;2.13;;
70780;SDS011;59514;48.810;2.134;2022-08-02T05:35:17;2.42;;;2.22;;
70780;SDS011;59514;48.810;2.134;2022-08-02T05:37:43;3.42;;;2.38;;
70780;SDS011;59514;48.810;2.134;2022-08-02T05:40:09;2.55;;;2.22;;
70780;SDS011;59514;48.810;2.134;2022-08-02T05:42:35;2.63;;;2.42;;
70780;SDS011;59514;48.810;2.134;2022-08-02T05:45:00;3.22;;;2.40;;
70780;SDS011;59514;48.810;2.134;2022-08-02T05:47:25;3.05;;;2.65;;
70780;SDS011;59514;48.810;2.134;2022-08-02T05:49:51;4.20;;;1.90;;
70780;SDS011;59514;48.810;2.134;2022-08-02T05:52:17;2.10;;;1.85;;
70780;SDS011;59514;48.810;2.134;2022-08-02T05:57:16;2.38;;;2.17;;
70780;SDS011;59514;48.810;2.134;2022-08-02T06:02:33;4.53;;;2.28;;
70780;SDS011;59514;48.810;2.134;2022-08-02T06:07:35;2.95;;;2.25;;
70780;SDS011;59514;48.810;2.134;2022-08-02T06:10:05;3.00;;;2.30;;
70780;SDS011;59514;48.810;2.134;2022-08-02T06:12:32;3.75;;;2.05;;
70780;SDS011;59514;48.810;2.134;2022-08-02T06:15:05;2.65;;;2.10;;
70780;SDS011;59514;48.810;2.134;2022-08-02T06:17:31;4.70;;;2.17;;
70780;SDS011;59514;48.810;2.134;2022-08-02T06:19:56;3.47;;;1.90;;
70780;SDS011;59514;48.810;2.134;2022-08-02T06:22:25;4.07;;;2.45;;
70780;SDS011;59514;48.810;2.134;2022-08-02T06:24:51;3.17;;;2.22;;
70780;SDS011;59514;48.810;2.134;2022-08-02T06:27:18;2.92;;;2.35;;
70780;SDS011;59514;48.810;2.134;2022-08-02T06:29:45;2.42;;;2.10;;
70780;SDS011;59514;48.810;2.134;2022-08-02T06:32:13;3.90;;;1.80;;
70780;SDS011;59514;48.810;2.134;2022-08-02T06:34:42;2.08;;;1.88;;
70780;SDS011;59514;48.810;2.134;2022-08-02T06:37:09;2.80;;;1.92;;
70780;SDS011;59514;48.810;2.134;2022-08-02T06:39:44;3.60;;;1.70;;
70780;SDS011;59514;48.810;2.134;2022-08-02T06:42:14;3.85;;;1.90;;
70780;SDS011;59514;48.810;2.134;2022-08-02T06:44:45;2.33;;;1.50;;
70780;SDS011;59514;48.810;2.134;2022-08-02T06:47:10;2.45;;;1.70;;
70780;SDS011;59514;48.810;2.134;2022-08-02T06:49:35;2.45;;;1.40;;
70780;SDS011;59514;48.810;2.134;2022-08-02T06:52:01;3.03;;;1.73;;
70780;SDS011;59514;48.810;2.134;2022-08-02T06:54:27;1.90;;;1.50;;
70780;SDS011;59514;48.810;2.134;2022-08-02T06:56:53;2.72;;;1.73;;
70780;SDS011;59514;48.810;2.134;2022-08-02T06:59:18;2.53;;;1.45;;
70780;SDS011;59514;48.810;2.134;2022-08-02T07:01:43;2.15;;;1.80;;
70780;SDS011;59514;48.810;2.134;2022-08-02T07:04:09;2.30;;;1.50;;
70780;SDS011;59514;48.810;2.134;2022-08-02T07:06:34;2.38;;;1.50;;
70780;SDS011;59514;48.810;2.134;2022-08-02T07:09:00;3.90;;;1.75;;
70780;SDS011;59514;48.810;2.134;2022-08-02T07:11:25;2.92;;;1.58;;
70780;SDS011;59514;48.810;2.134;2022-08-02T07:13:50;2.15;;;1.55;;
70780;SDS011;59514;48.810;2.134;2022-08-02T07:16:16;1.48;;;1.35;;
70780;SDS011;59514;48.810;2.134;2022-08-02T07:18:41;2.83;;;1.60;;
70780;SDS011;59514;48.810;2.134;2022-08-02T07:21:06;2.08;;;1.60;;
70780;SDS011;59514;48.810;2.134;2022-08-02T07:23:32;1.83;;;1.60;;
70780;SDS011;59514;48.810;2.134;2022-08-02T07:25:57;1.80;;;1.52;;
70780;SDS011;59514;48.810;2.134;2022-08-02T07:28:24;1.67;;;1.40;;
70780;SDS011;59514;48.810;2.134;2022-08-02T07:30:49;1.95;;;1.20;;
70780;SDS011;59514;48.810;2.134;2022-08-02T07:33:14;2.00;;;1.48;;
70780;SDS011;59514;48.810;2.134;2022-08-02T07:35:40;3.38;;;1.63;;
70780;SDS011;59514;48.810;2.134;2022-08-02T07:38:06;2.72;;;1.60;;
70780;SDS011;59514;48.810;2.134;2022-08-02T07:40:32;5.78;;;1.40;;
70780;SDS011;59514;48.810;2.134;2022-08-02T07:42:57;3.92;;;1.33;;
70780;SDS011;59514;48.810;2.134;2022-08-02T07:45:23;3.20;;;1.33;;
70780;SDS011;59514;48.810;2.134;2022-08-02T07:47:49;2.80;;;1.50;;
70780;SDS011;59514;48.810;2.134;2022-08-02T07:50:16;1.70;;;1.25;;
70780;SDS011;59514;48.810;2.134;2022-08-02T07:52:43;1.50;;;1.30;;
70780;SDS011;59514;48.810;2.134;2022-08-02T07:55:10;2.58;;;1.30;;
70780;SDS011;59514;48.810;2.134;2022-08-02T07:57:38;1.50;;;1.40;;
70780;SDS011;59514;48.810;2.134;2022-08-02T08:00:05;2.30;;;1.40;;
70780;SDS011;59514;48.810;2.134;2022-08-02T08:02:31;2.95;;;1.50;;
70780;SDS011;59514;48.810;2.134;2022-08-02T08:04:56;1.75;;;1.63;;
70780;SDS011;59514;48.810;2.134;2022-08-02T08:07:22;3.00;;;2.20;;
70780;SDS011;59514;48.810;2.134;2022-08-02T08:09:50;4.05;;;2.70;;
70780;SDS011;59514;48.810;2.134;2022-08-02T08:12:16;3.53;;;1.90;;
70780;SDS011;59514;48.810;2.134;2022-08-02T08:14:41;2.85;;;1.60;;
70780;SDS011;59514;48.810;2.134;2022-08-02T08:17:07;1.20;;;1.10;;
70780;SDS011;59514;48.810;2.134;2022-08-02T08:19:33;2.25;;;1.25;;
70780;SDS011;59514;48.810;2.134;2022-08-02T08:21:58;3.40;;;3.10;;
70780;SDS011;59514;48.810;2.134;2022-08-02T08:24:25;2.70;;;1.90;;
70780;SDS011;59514;48.810;2.134;2022-08-02T08:26:51;2.75;;;1.50;;
70780;SDS011;59514;48.810;2.134;2022-08-02T08:29:16;2.00;;;1.38;;
70780;SDS011;59514;48.810;2.134;2022-08-02T08:31:41;2.90;;;1.80;;
70780;SDS011;59514;48.810;2.134;2022-08-02T08:34:07;1.77;;;1.38;;
70780;SDS011;59514;48.810;2.134;2022-08-02T08:36:32;2.95;;;1.80;;
70780;SDS011;59514;48.810;2.134;2022-08-02T08:38:57;5.65;;;1.98;;
70780;SDS011;59514;48.810;2.134;2022-08-02T08:41:23;3.80;;;2.10;;
70780;SDS011;59514;48.810;2.134;2022-08-02T08:43:48;8.55;;;2.80;;
70780;SDS011;59514;48.810;2.134;2022-08-02T08:46:28;2.28;;;1.50;;
70780;SDS011;59514;48.810;2.134;2022-08-02T08:48:59;2.33;;;1.38;;
70780;SDS011;59514;48.810;2.134;2022-08-02T08:53:54;4.45;;;1.70;;
70780;SDS011;59514;48.810;2.134;2022-08-02T08:56:23;4.50;;;2.05;;
70780;SDS011;59514;48.810;2.134;2022-08-02T08:58:55;5.25;;;2.00;;
70780;SDS011;59514;48.810;2.134;2022-08-02T09:01:21;2.13;;;1.92;;
70780;SDS011;59514;48.810;2.134;2022-08-02T09:03:47;2.78;;;1.70;;
70780;SDS011;59514;48.810;2.134;2022-08-02T09:06:12;3.75;;;1.98;;
70780;SDS011;59514;48.810;2.134;2022-08-02T09:08:38;5.47;;;1.90;;
70780;SDS011;59514;48.810;2.134;2022-08-02T09:11:10;3.13;;;1.77;;
70780;SDS011;59514;48.810;2.134;2022-08-02T09:13:57;3.28;;;2.60;;
70780;SDS011;59514;48.810;2.134;2022-08-02T09:19:16;2.40;;;1.95;;
70780;SDS011;59514;48.810;2.134;2022-08-02T09:21:44;2.95;;;2.25;;
70780;SDS011;59514;48.810;2.134;2022-08-02T09:24:16;3.03;;;2.10;;
70780;SDS011;59514;48.810;2.134;2022-08-02T09:26:46;2.78;;;2.20;;
70780;SDS011;59514;48.810;2.134;2022-08-02T09:29:13;2.53;;;1.80;;
70780;SDS011;59514;48.810;2.134;2022-08-02T09:31:39;2.30;;;2.10;;
70780;SDS011;59514;48.810;2.134;2022-08-02T09:34:06;2.80;;;1.88;;
70780;SDS011;59514;48.810;2.134;2022-08-02T09:36:39;4.07;;;2.20;;
70780;SDS011;59514;48.810;2.134;2022-08-02T09:39:07;3.03;;;1.80;;
70780;SDS011;59514;48.810;2.134;2022-08-02T09:41:35;2.70;;;1.80;;
70780;SDS011;59514;48.810;2.134;2022-08-02T09:44:04;4.53;;;2.10;;
70780;SDS011;59514;48.810;2.134;2022-08-02T09:46:31;2.85;;;1.90;;
70780;SDS011;59514;48.810;2.134;2022-08-02T09:49:03;2.05;;;1.85;;
70780;SDS011;59514;48.810;2.134;2022-08-02T09:51:39;2.17;;;1.85;;
70780;SDS011;59514;48.810;2.134;2022-08-02T09:54:18;2.80;;;2.60;;
70780;SDS011;59514;48.810;2.134;2022-08-02T09:56:53;3.58;;;1.90;;
70780;SDS011;59514;48.810;2.134;2022-08-02T09:59:24;3.30;;;2.10;;
70780;SDS011;59514;48.810;2.134;2022-08-02T10:01:50;2.58;;;1.88;;
70780;SDS011;59514;48.810;2.134;2022-08-02T10:04:21;2.90;;;1.90;;
70780;SDS011;59514;48.810;2.134;2022-08-02T10:06:48;3.65;;;1.85;;
70780;SDS011;59514;48.810;2.134;2022-08-02T10:09:15;4.80;;;2.00;;
70780;SDS011;59514;48.810;2.134;2022-08-02T10:11:41;2.72;;;1.75;;
70780;SDS011;59514;48.810;2.134;2022-08-02T10:14:08;5.40;;;2.35;;
70780;SDS011;59514;48.810;2.134;2022-08-02T10:16:36;2.72;;;1.73;;
70780;SDS011;59514;48.810;2.134;2022-08-02T10:19:03;3.25;;;1.85;;
70780;SDS011;59514;48.810;2.134;2022-08-02T10:24:02;2.83;;;2.10;;
70780;SDS011;59514;48.810;2.134;2022-08-02T10:26:30;2.70;;;1.80;;
70780;SDS011;59514;48.810;2.134;2022-08-02T10:28:56;3.17;;;1.67;;
70780;SDS011;59514;48.810;2.134;2022-08-02T10:31:23;2.88;;;1.58;;
70780;SDS011;59514;48.810;2.134;2022-08-02T10:33:51;2.85;;;1.80;;
70780;SDS011;59514;48.810;2.134;2022-08-02T10:36:20;4.32;;;1.73;;
70780;SDS011;59514;48.810;2.134;2022-08-02T10:38:47;1.83;;;1.73;;
70780;SDS011;59514;48.810;2.134;2022-08-02T10:41:14;2.40;;;1.83;;
70780;SDS011;59514;48.810;2.134;2022-08-02T10:54:43;1.40;;;1.30;;
70780;SDS011;59514;48.810;2.134;2022-08-02T10:57:19;2.03;;;1.50;;
70780;SDS011;59514;48.810;2.134;2022-08-02T10:59:50;1.67;;;1.50;;
70780;SDS011;59514;48.810;2.134;2022-08-02T11:07:41;2.35;;;1.40;;
70780;SDS011;59514;48.810;2.134;2022-08-02T11:10:26;3.70;;;1.42;;
70780;SDS011;59514;48.810;2.134;2022-08-02T11:13:11;2.22;;;1.30;;
70780;SDS011;59514;48.810;2.134;2022-08-02T11:18:14;1.70;;;1.33;;
70780;SDS011;59514;48.810;2.134;2022-08-02T11:20:40;2.03;;;1.50;;
70780;SDS011;59514;48.810;2.134;2022-08-02T11:26:48;1.65;;;1.40;;
70780;SDS011;59514;48.810;2.134;2022-08-02T11:28:55;1.65;;;1.30;;
70780;SDS011;59514;48.810;2.134;2022-08-02T11:31:21;1.90;;;1.30;;
70780;SDS011;59514;48.810;2.134;2022-08-02T11:33:49;2.13;;;1.42;;
70780;SDS011;59514;48.810;2.134;2022-08-02T11:36:16;1.95;;;1.20;;
70780;SDS011;59514;48.810;2.134;2022-08-02T11:38:42;4.75;;;1.23;;
70780;SDS011;59514;48.810;2.134;2022-08-02T11:41:08;1.30;;;1.02;;
70780;SDS011;59514;48.810;2.134;2022-08-02T11:43:34;3.55;;;1.10;;
70780;SDS011;59514;48.810;2.134;2022-08-02T11:46:01;0.82;;;0.82;;
70780;SDS011;59514;48.810;2.134;2022-08-02T11:48:31;1.17;;;1.02;;
70780;SDS011;59514;48.810;2.134;2022-08-02T11:51:22;1.35;;;0.93;;
70780;SDS011;59514;48.810;2.134;2022-08-02T11:53:49;1.77;;;1.05;;
70780;SDS011;59514;48.810;2.134;2022-08-02T11:56:18;1.23;;;1.10;;
70780;SDS011;59514;48.810;2.134;2022-08-02T11:59:09;2.22;;;1.20;;
70780;SDS011;59514;48.810;2.134;2022-08-02T12:01:36;2.45;;;1.20;;
70780;SDS011;59514;48.810;2.134;2022-08-02T12:04:04;1.08;;;1.08;;
70780;SDS011;59514;48.810;2.134;2022-08-02T12:06:30;1.13;;;1.02;;
70780;SDS011;59514;48.810;2.134;2022-08-02T12:11:32;1.67;;;1.02;;
70780;SDS011;59514;48.810;2.134;2022-08-02T12:13:57;1.40;;;1.10;;
70780;SDS011;59514;48.810;2.134;2022-08-02T12:16:23;1.83;;;0.90;;
70780;SDS011;59514;48.810;2.134;2022-08-02T12:19:08;0.80;;;0.80;;
70780;SDS011;59514;48.810;2.134;2022-08-02T12:21:43;2.95;;;1.10;;
70780;SDS011;59514;48.810;2.134;2022-08-02T12:24:10;1.60;;;1.10;;
70780;SDS011;59514;48.810;2.134;2022-08-02T12:29:08;0.80;;;0.80;;
70780;SDS011;59514;48.810;2.134;2022-08-02T12:31:39;1.10;;;0.98;;
70780;SDS011;59514;48.810;2.134;2022-08-02T12:34:14;2.83;;;1.52;;
70780;SDS011;59514;48.810;2.134;2022-08-02T12:36:43;1.00;;;0.90;;
70780;SDS011;59514;48.810;2.134;2022-08-02T12:39:31;2.45;;;1.23;;
70780;SDS011;59514;48.810;2.134;2022-08-02T12:42:01;1.98;;;0.93;;
70780;SDS011;59514;48.810;2.134;2022-08-02T12:44:27;2.78;;;0.70;;
70780;SDS011;59514;48.810;2.134;2022-08-02T12:46:59;1.15;;;0.73;;
70780;SDS011;59514;48.810;2.134;2022-08-02T12:49:25;0.85;;;0.85;;
70780;SDS011;59514;48.810;2.134;2022-08-02T12:51:51;2.45;;;1.58;;
70780;SDS011;59514;48.810;2.134;2022-08-02T12:54:21;0.95;;;0.95;;
70780;SDS011;59514;48.810;2.134;2022-08-02T12:57:09;2.92;;;1.45;;
70780;SDS011;59514;48.810;2.134;2022-08-02T12:59:37;3.05;;;1.10;;
70780;SDS011;59514;48.810;2.134;2022-08-02T13:02:03;2.10;;;1.15;;
70780;SDS011;59514;48.810;2.134;2022-08-02T13:04:30;1.15;;;1.05;;
70780;SDS011;59514;48.810;2.134;2022-08-02T13:06:56;2.13;;;1.20;;
70780;SDS011;59514;48.810;2.134;2022-08-02T13:09:21;1.52;;;1.10;;
70780;SDS011;59514;48.810;2.134;2022-08-02T13:11:47;2.35;;;1.10;;
70780;SDS011;59514;48.810;2.134;2022-08-02T13:14:12;3.25;;;1.10;;
70780;SDS011;59514;48.810;2.134;2022-08-02T13:16:38;1.63;;;1.10;;
70780;SDS011;59514;48.810;2.134;2022-08-02T13:19:04;1.35;;;1.23;;
70780;SDS011;59514;48.810;2.134;2022-08-02T13:21:29;2.50;;;1.20;;
70780;SDS011;59514;48.810;2.134;2022-08-02T13:23:55;1.40;;;1.03;;
70780;SDS011;59514;48.810;2.134;2022-08-02T13:26:20;4.55;;;1.30;;
70780;SDS011;59514;48.810;2.134;2022-08-02T13:28:45;1.60;;;1.08;;
70780;SDS011;59514;48.810;2.134;2022-08-02T13:31:11;1.98;;;1.23;;
70780;SDS011;59514;48.810;2.134;2022-08-02T13:33:37;1.80;;;1.70;;
70780;SDS011;59514;48.810;2.134;2022-08-02T13:36:02;2.53;;;1.50;;
70780;SDS011;59514;48.810;2.134;2022-08-02T13:38:28;2.05;;;1.05;;
70780;SDS011;59514;48.810;2.134;2022-08-02T13:40:53;2.40;;;1.13;;
70780;SDS011;59514;48.810;2.134;2022-08-02T13:43:34;1.73;;;0.80;;
70780;SDS011;59514;48.810;2.134;2022-08-02T13:46:00;1.10;;;0.98;;
70780;SDS011;59514;48.810;2.134;2022-08-02T13:48:26;1.58;;;1.00;;
70780;SDS011;59514;48.810;2.134;2022-08-02T13:50:52;2.15;;;1.10;;
70780;SDS011;59514;48.810;2.134;2022-08-02T13:53:17;1.23;;;1.00;;
70780;SDS011;59514;48.810;2.134;2022-08-02T13:55:43;1.63;;;1.10;;
70780;SDS011;59514;48.810;2.134;2022-08-02T13:58:08;1.63;;;1.00;;
70780;SDS011;59514;48.810;2.134;2022-08-02T14:00:34;1.55;;;0.77;;
70780;SDS011;59514;48.810;2.134;2022-08-02T14:02:59;2.67;;;1.10;;
70780;SDS011;59514;48.810;2.134;2022-08-02T14:05:24;2.10;;;1.20;;
70780;SDS011;59514;48.810;2.134;2022-08-02T14:07:57;1.15;;;1.10;;
70780;SDS011;59514;48.810;2.134;2022-08-02T14:10:23;1.85;;;1.05;;
70780;SDS011;59514;48.810;2.134;2022-08-02T14:12:53;1.70;;;1.13;;
70780;SDS011;59514;48.810;2.134;2022-08-02T14:15:18;1.67;;;1.48;;
70780;SDS011;59514;48.810;2.134;2022-08-02T14:17:44;1.80;;;1.33;;
70780;SDS011;59514;48.810;2.134;2022-08-02T14:20:10;2.47;;;1.10;;
70780;SDS011;59514;48.810;2.134;2022-08-02T14:22:35;2.05;;;1.15;;
70780;SDS011;59514;48.810;2.134;2022-08-02T14:25:01;2.80;;;1.10;;
70780;SDS011;59514;48.810;2.134;2022-08-02T14:27:26;2.40;;;1.10;;
70780;SDS011;59514;48.810;2.134;2022-08-02T14:29:52;3.15;;;1.20;;
70780;SDS011;59514;48.810;2.134;2022-08-02T14:32:17;1.40;;;1.30;;
70780;SDS011;59514;48.810;2.134;2022-08-02T14:34:42;1.63;;;1.17;;
70780;SDS011;59514;48.810;2.134;2022-08-02T14:37:08;1.67;;;1.10;;
70780;SDS011;59514;48.810;2.134;2022-08-02T14:39:34;3.95;;;1.40;;
70780;SDS011;59514;48.810;2.134;2022-08-02T14:42:00;3.20;;;0.90;;
70780;SDS011;59514;48.810;2.134;2022-08-02T14:44:25;1.75;;;0.90;;
70780;SDS011;59514;48.810;2.134;2022-08-02T14:46:51;1.73;;;1.10;;
70780;SDS011;59514;48.810;2.134;2022-08-02T14:49:16;1.20;;;1.00;;
70780;SDS011;59514;48.810;2.134;2022-08-02T14:51:42;2.30;;;1.10;;
70780;SDS011;59514;48.810;2.134;2022-08-02T14:54:07;1.77;;;0.93;;
70780;SDS011;59514;48.810;2.134;2022-08-02T14:56:33;1.17;;;0.80;;
70780;SDS011;59514;48.810;2.134;2022-08-02T14:58:59;1.85;;;1.00;;
70780;SDS011;59514;48.810;2.134;2022-08-02T15:01:24;1.33;;;1.10;;
70780;SDS011;59514;48.810;2.134;2022-08-02T15:03:50;1.23;;;0.75;;
70780;SDS011;59514;48.810;2.134;2022-08-02T15:06:15;4.30;;;1.15;;
70780;SDS011;59514;48.810;2.134;2022-08-02T15:08:41;2.58;;;0.90;;
70780;SDS011;59514;48.810;2.134;2022-08-02T15:11:06;1.67;;;0.93;;
70780;SDS011;59514;48.810;2.134;2022-08-02T15:13:32;1.42;;;1.20;;
70780;SDS011;59514;48.810;2.134;2022-08-02T15:15:57;0.90;;;0.90;;
70780;SDS011;59514;48.810;2.134;2022-08-02T15:18:22;2.17;;;1.17;;
70780;SDS011;59514;48.810;2.134;2022-08-02T15:20:48;1.25;;;0.80;;
70780;SDS011;59514;48.810;2.134;2022-08-02T15:23:13;1.33;;;0.90;;
70780;SDS011;59514;48.810;2.134;2022-08-02T15:25:40;1.48;;;0.80;;
70780;SDS011;59514;48.810;2.134;2022-08-02T15:28:06;1.08;;;0.98;;
70780;SDS011;59514;48.810;2.134;2022-08-02T15:30:32;2.72;;;1.05;;
70780;SDS011;59514;48.810;2.134;2022-08-02T15:32:58;1.38;;;0.73;;
70780;SDS011;59514;48.810;2.134;2022-08-02T15:35:23;1.20;;;0.90;;
70780;SDS011;59514;48.810;2.134;2022-08-02T15:37:48;1.33;;;0.73;;
70780;SDS011;59514;48.810;2.134;2022-08-02T15:40:14;1.17;;;0.60;;
70780;SDS011;59514;48.810;2.134;2022-08-02T15:42:39;1.95;;;1.20;;
70780;SDS011;59514;48.810;2.134;2022-08-02T15:45:05;1.42;;;0.80;;
70780;SDS011;59514;48.810;2.134;2022-08-02T15:47:30;1.27;;;0.68;;